sensor_id;sensor_type;location;lat;lon;timestamp;pressure;altitude;pressure_sealevel;temperature;humidity
7754;BME280;3921;42.266;23.122;2023-07-08T00:01:11;95947.75;;;22.95;82.77
7754;BME280;3921;42.266;23.122;2023-07-08T00:03:39;95831.31;;;22.09;83.02
7754;BME280;3921;42.266;23.122;2023-07-08T00:06:11;95604.34;;;20.63;82.85
7754;BME280;3921;42.266;23.122;2023-07-08T00:08:40;95891.81;;;22.67;82.32
7754;BME280;3921;42.266;23.122;2023-07-08T00:11:09;95517.13;;;20.14;81.95
7754;BME280;3921;42.266;23.122;2023-07-08T00:13:37;95945.31;;;22.92;82.93
7754;BME280;3921;42.266;23.122;2023-07-08T00:16:04;95375.75;;;19.21;81.83
7754;BME280;3921;42.266;23.122;2023-07-08T00:18:31;95944.66;;;22.87;83.15
7754;BME280;3921;42.266;23.122;2023-07-08T00:20:58;95558.88;;;20.32;82.84
7754;BME280;3921;42.266;23.122;2023-07-08T00:23:27;95409.19;;;19.34;82.74
7754;BME280;3921;42.266;23.122;2023-07-08T00:25:54;95404.84;;;19.36;82.51
7754;BME280;3921;42.266;23.122;2023-07-08T00:28:21;95804.69;;;21.94;82.27
7754;BME280;3921;42.266;23.122;2023-07-08T00:30:51;95856.75;;;21.93;82.27
7754;BME280;3921;42.266;23.122;2023-07-08T00:33:18;95524.00;;;20.12;82.19
7754;BME280;3921;42.266;23.122;2023-07-08T00:35:45;95223.19;;;18.34;81.89
7754;BME280;3921;42.266;23.122;2023-07-08T00:38:14;95821.22;;;21.87;82.59
7754;BME280;3921;42.266;23.122;2023-07-08T00:40:50;95399.44;;;19.23;82.64
7754;BME280;3921;42.266;23.122;2023-07-08T00:43:19;95824.31;;;21.94;82.97
7754;BME280;3921;42.266;23.122;2023-07-08T00:45:50;95727.06;;;21.39;82.77
7754;BME280;3921;42.266;23.122;2023-07-08T00:48:23;95361.03;;;19.07;82.31
7754;BME280;3921;42.266;23.122;2023-07-08T00:50:51;95634.94;;;20.65;82.94
7754;BME280;3921;42.266;23.122;2023-07-08T00:53:28;95413.97;;;19.21;82.40
7754;BME280;3921;42.266;23.122;2023-07-08T00:55:59;95783.53;;;21.72;82.71
7754;BME280;3921;42.266;23.122;2023-07-08T00:58:36;95581.69;;;20.35;82.44
7754;BME280;3921;42.266;23.122;2023-07-08T01:01:06;95942.28;;;22.65;82.46
7754;BME280;3921;42.266;23.122;2023-07-08T01:03:38;95780.97;;;21.53;81.86
7754;BME280;3921;42.266;23.122;2023-07-08T01:06:06;95382.00;;;18.92;81.55
7754;BME280;3921;42.266;23.122;2023-07-08T01:08:33;95947.84;;;22.56;81.75
7754;BME280;3921;42.266;23.122;2023-07-08T01:11:02;95560.91;;;20.24;81.73
7754;BME280;3921;42.266;23.122;2023-07-08T01:13:34;95264.06;;;18.29;81.45
7754;BME280;3921;42.266;23.122;2023-07-08T01:16:03;95950.72;;;22.48;82.23
7754;BME280;3921;42.266;23.122;2023-07-08T01:18:31;95930.19;;;22.49;81.77
7754;BME280;3921;42.266;23.122;2023-07-08T01:21:02;95367.44;;;18.96;81.39
7754;BME280;3921;42.266;23.122;2023-07-08T01:23:34;95642.72;;;20.62;81.80
7754;BME280;3921;42.266;23.122;2023-07-08T01:26:01;95270.41;;;18.19;81.50
7754;BME280;3921;42.266;23.122;2023-07-08T01:28:29;95441.34;;;19.16;81.79
7754;BME280;3921;42.266;23.122;2023-07-08T01:30:56;95449.41;;;19.26;81.59
7754;BME280;3921;42.266;23.122;2023-07-08T01:33:24;95728.72;;;21.01;82.07
7754;BME280;3921;42.266;23.122;2023-07-08T01:35:52;95922.91;;;22.40;82.13
7754;BME280;3921;42.266;23.122;2023-07-08T01:38:24;95615.28;;;20.26;81.91
7754;BME280;3921;42.266;23.122;2023-07-08T01:40:55;95935.50;;;22.45;81.71
7754;BME280;3921;42.266;23.122;2023-07-08T01:43:22;95397.63;;;19.05;81.35
7754;BME280;3921;42.266;23.122;2023-07-08T01:45:51;95646.13;;;20.40;81.78
7754;BME280;3921;42.266;23.122;2023-07-08T01:48:25;95367.66;;;18.69;82.23
7754;BME280;3921;42.266;23.122;2023-07-08T01:51:00;95743.28;;;20.99;82.62
7754;BME280;3921;42.266;23.122;2023-07-08T01:53:30;95371.66;;;18.75;81.98
7754;BME280;3921;42.266;23.122;2023-07-08T01:56:00;95973.22;;;22.41;82.28
7754;BME280;3921;42.266;23.122;2023-07-08T01:58:29;95164.84;;;17.66;81.73
7754;BME280;3921;42.266;23.122;2023-07-08T02:00:56;95929.03;;;22.38;82.16
7754;BME280;3921;42.266;23.122;2023-07-08T02:03:23;95370.72;;;18.77;81.42
7754;BME280;3921;42.266;23.122;2023-07-08T02:05:51;95218.69;;;17.76;81.90
7754;BME280;3921;42.266;23.122;2023-07-08T02:08:19;95453.34;;;19.13;81.88
7754;BME280;3921;42.266;23.122;2023-07-08T02:10:49;95359.81;;;18.52;82.03
7754;BME280;3921;42.266;23.122;2023-07-08T02:13:18;95351.31;;;18.53;81.92
7754;BME280;3921;42.266;23.122;2023-07-08T02:15:45;95241.16;;;18.09;81.24
7754;BME280;3921;42.266;23.122;2023-07-08T02:18:13;95798.72;;;21.56;80.42
7754;BME280;3921;42.266;23.122;2023-07-08T02:20:40;95483.28;;;19.50;81.13
7754;BME280;3921;42.266;23.122;2023-07-08T02:23:09;95308.66;;;18.38;81.71
7754;BME280;3921;42.266;23.122;2023-07-08T02:25:38;95338.94;;;18.66;81.65
7754;BME280;3921;42.266;23.122;2023-07-08T02:28:05;95730.09;;;20.89;81.45
7754;BME280;3921;42.266;23.122;2023-07-08T02:30:34;95312.38;;;18.51;81.24
7754;BME280;3921;42.266;23.122;2023-07-08T02:33:02;95271.47;;;18.35;81.36
7754;BME280;3921;42.266;23.122;2023-07-08T02:35:30;95228.56;;;17.84;81.58
7754;BME280;3921;42.266;23.122;2023-07-08T02:37:57;95959.94;;;22.33;81.75
7754;BME280;3921;42.266;23.122;2023-07-08T02:40:25;95292.59;;;18.15;81.86
7754;BME280;3921;42.266;23.122;2023-07-08T02:42:53;95962.69;;;22.29;82.37
7754;BME280;3921;42.266;23.122;2023-07-08T02:45:20;95929.34;;;22.30;82.05
7754;BME280;3921;42.266;23.122;2023-07-08T02:47:49;95657.88;;;20.45;82.32
7754;BME280;3921;42.266;23.122;2023-07-08T02:50:16;95932.19;;;22.24;82.70
7754;BME280;3921;42.266;23.122;2023-07-08T02:52:44;95633.78;;;20.31;82.51
7754;BME280;3921;42.266;23.122;2023-07-08T02:55:11;95433.00;;;18.91;82.60
7754;BME280;3921;42.266;23.122;2023-07-08T02:57:38;95857.22;;;21.64;83.16
7754;BME280;3921;42.266;23.122;2023-07-08T03:00:07;95466.00;;;19.14;82.60
7754;BME280;3921;42.266;23.122;2023-07-08T03:02:34;95388.06;;;18.68;82.30
7754;BME280;3921;42.266;23.122;2023-07-08T03:05:05;95322.25;;;18.15;82.60
7754;BME280;3921;42.266;23.122;2023-07-08T03:07:33;95824.34;;;21.36;82.82
7754;BME280;3921;42.266;23.122;2023-07-08T03:10:00;95586.75;;;19.76;82.87
7754;BME280;3921;42.266;23.122;2023-07-08T03:12:27;95815.56;;;21.21;82.63
7754;BME280;3921;42.266;23.122;2023-07-08T03:14:53;95537.28;;;19.80;81.66
7754;BME280;3921;42.266;23.122;2023-07-08T03:17:20;95514.03;;;19.45;82.08
7754;BME280;3921;42.266;23.122;2023-07-08T03:19:47;95422.56;;;18.97;82.04
7754;BME280;3921;42.266;23.122;2023-07-08T03:22:16;95580.06;;;19.94;81.94
7754;BME280;3921;42.266;23.122;2023-07-08T03:24:44;95346.50;;;18.45;82.05
7754;BME280;3921;42.266;23.122;2023-07-08T03:27:12;95453.13;;;18.97;82.23
7754;BME280;3921;42.266;23.122;2023-07-08T03:29:39;95424.44;;;18.93;81.95
7754;BME280;3921;42.266;23.122;2023-07-08T03:32:08;95640.72;;;20.28;82.10
7754;BME280;3921;42.266;23.122;2023-07-08T03:34:36;95829.84;;;21.66;82.20
7754;BME280;3921;42.266;23.122;2023-07-08T03:37:03;95635.22;;;20.16;82.21
7754;BME280;3921;42.266;23.122;2023-07-08T03:39:32;95562.78;;;19.80;82.19
7754;BME280;3921;42.266;23.122;2023-07-08T03:42:00;95349.84;;;18.25;82.79
7754;BME280;3921;42.266;23.122;2023-07-08T03:44:27;95786.69;;;21.19;82.91
7754;BME280;3921;42.266;23.122;2023-07-08T03:46:54;95339.53;;;18.50;82.51
7754;BME280;3921;42.266;23.122;2023-07-08T03:49:22;95791.69;;;21.22;82.91
7754;BME280;3921;42.266;23.122;2023-07-08T03:51:51;95236.72;;;17.92;82.50
7754;BME280;3921;42.266;23.122;2023-07-08T03:54:20;95340.31;;;18.30;82.63
7754;BME280;3921;42.266;23.122;2023-07-08T03:56:51;95578.28;;;19.96;82.94
7754;BME280;3921;42.266;23.122;2023-07-08T03:59:18;95915.97;;;22.05;83.40
7754;BME280;3921;42.266;23.122;2023-07-08T04:01:45;95326.81;;;18.28;83.22
7754;BME280;3921;42.266;23.122;2023-07-08T04:04:14;95669.78;;;20.46;83.57
7754;BME280;3921;42.266;23.122;2023-07-08T04:06:44;95557.38;;;19.67;83.82
7754;BME280;3921;42.266;23.122;2023-07-08T04:09:11;95278.72;;;18.00;83.45
7754;BME280;3921;42.266;23.122;2023-07-08T04:11:38;95813.97;;;21.18;83.40
7754;BME280;3921;42.266;23.122;2023-07-08T04:14:10;95369.56;;;18.41;83.35
7754;BME280;3921;42.266;23.122;2023-07-08T04:16:54;95315.53;;;18.36;82.19
7754;BME280;3921;42.266;23.122;2023-07-08T04:19:23;95314.91;;;18.29;82.31
7754;BME280;3921;42.266;23.122;2023-07-08T04:21:52;95920.84;;;22.11;82.39
7754;BME280;3921;42.266;23.122;2023-07-08T04:24:19;95963.44;;;22.12;80.06
7754;BME280;3921;42.266;23.122;2023-07-08T04:26:48;95827.00;;;21.33;80.26
7754;BME280;3921;42.266;23.122;2023-07-08T04:29:17;95927.22;;;22.00;80.74
7754;BME280;3921;42.266;23.122;2023-07-08T04:31:47;95533.06;;;19.58;80.86
7754;BME280;3921;42.266;23.122;2023-07-08T04:34:16;95286.16;;;17.83;80.99
7754;BME280;3921;42.266;23.122;2023-07-08T04:36:47;95397.09;;;18.76;80.84
7754;BME280;3921;42.266;23.122;2023-07-08T04:39:50;95359.53;;;18.38;80.73
7754;BME280;3921;42.266;23.122;2023-07-08T04:44:56;95343.28;;;18.42;80.43
7754;BME280;3921;42.266;23.122;2023-07-08T04:47:24;95447.13;;;18.98;80.43
7754;BME280;3921;42.266;23.122;2023-07-08T04:49:55;95722.41;;;20.68;80.55
7754;BME280;3921;42.266;23.122;2023-07-08T04:52:35;95250.88;;;17.75;80.46
7754;BME280;3921;42.266;23.122;2023-07-08T04:55:05;95942.66;;;22.19;80.93
7754;BME280;3921;42.266;23.122;2023-07-08T04:57:35;95800.78;;;21.29;80.96
7754;BME280;3921;42.266;23.122;2023-07-08T05:00:05;95579.03;;;19.77;80.88
7754;BME280;3921;42.266;23.122;2023-07-08T05:02:40;95346.69;;;18.19;81.32
7754;BME280;3921;42.266;23.122;2023-07-08T05:13:05;95318.16;;;18.12;79.86
7754;BME280;3921;42.266;23.122;2023-07-08T05:15:36;95984.56;;;22.36;80.55
7754;BME280;3921;42.266;23.122;2023-07-08T05:18:12;95979.59;;;22.33;80.01
7754;BME280;3921;42.266;23.122;2023-07-08T05:28:27;95750.44;;;20.70;79.99
7754;BME280;3921;42.266;23.122;2023-07-08T05:31:12;95351.50;;;18.26;80.29
7754;BME280;3921;42.266;23.122;2023-07-08T05:34:08;95394.97;;;18.42;80.47
7754;BME280;3921;42.266;23.122;2023-07-08T05:36:46;95776.28;;;20.62;80.99
7754;BME280;3921;42.266;23.122;2023-07-08T05:42:28;95283.75;;;17.80;80.71
7754;BME280;3921;42.266;23.122;2023-07-08T05:45:17;95998.47;;;22.30;80.99
7754;BME280;3921;42.266;23.122;2023-07-08T05:47:59;95375.31;;;18.46;81.08
7754;BME280;3921;42.266;23.122;2023-07-08T05:50:39;95344.72;;;18.03;80.74
7754;BME280;3921;42.266;23.122;2023-07-08T05:55:59;95455.50;;;18.79;80.42
7754;BME280;3921;42.266;23.122;2023-07-08T05:58:40;95412.94;;;18.83;79.71
7754;BME280;3921;42.266;23.122;2023-07-08T06:01:21;95423.28;;;18.78;76.48
7754;BME280;3921;42.266;23.122;2023-07-08T06:04:24;95405.50;;;18.55;76.81
7754;BME280;3921;42.266;23.122;2023-07-08T06:07:00;95394.09;;;18.43;77.45
7754;BME280;3921;42.266;23.122;2023-07-08T06:09:35;95631.13;;;20.12;77.89
7754;BME280;3921;42.266;23.122;2023-07-08T06:12:12;95596.44;;;19.88;75.42
7754;BME280;3921;42.266;23.122;2023-07-08T06:15:07;95457.09;;;19.04;74.63
7754;BME280;3921;42.266;23.122;2023-07-08T06:17:52;96029.63;;;22.59;75.17
7754;BME280;3921;42.266;23.122;2023-07-08T06:52:10;95454.59;;;19.02;71.63
7754;BME280;3921;42.266;23.122;2023-07-08T17:45:22;95849.84;;;26.15;49.06
7754;BME280;3921;42.266;23.122;2023-07-08T17:48:21;95276.22;;;22.38;49.99
7754;BME280;3921;42.266;23.122;2023-07-08T17:51:05;95662.41;;;24.81;49.35
7754;BME280;3921;42.266;23.122;2023-07-08T17:53:32;95202.03;;;21.90;49.55
7754;BME280;3921;42.266;23.122;2023-07-08T17:56:02;95378.44;;;22.88;49.97
7754;BME280;3921;42.266;23.122;2023-07-08T17:58:35;95570.88;;;24.21;49.92
7754;BME280;3921;42.266;23.122;2023-07-08T18:01:09;95742.44;;;25.19;49.84
7754;BME280;3921;42.266;23.122;2023-07-08T18:03:46;95605.50;;;24.14;50.27
7754;BME280;3921;42.266;23.122;2023-07-08T18:06:15;95864.56;;;25.71;50.50
7754;BME280;3921;42.266;23.122;2023-07-08T18:08:43;95387.03;;;22.71;50.66
7754;BME280;3921;42.266;23.122;2023-07-08T18:11:11;95476.31;;;23.25;50.58
